sensor_id;sensor_type;location;lat;lon;timestamp;temperature;humidity
23073;DHT22;67971;51.046;3.732;2023-04-15T00:01:25;13.80;99.90
23073;DHT22;67971;51.046;3.732;2023-04-15T00:03:52;13.70;99.90
23073;DHT22;67971;51.046;3.732;2023-04-15T00:06:21;13.80;99.90
23073;DHT22;67971;51.046;3.732;2023-04-15T00:08:47;13.80;99.90
23073;DHT22;67971;51.046;3.732;2023-04-15T00:11:13;13.90;99.90
23073;DHT22;67971;51.046;3.732;2023-04-15T00:13:39;13.90;99.90
23073;DHT22;67971;51.046;3.732;2023-04-15T00:16:06;13.90;99.90
23073;DHT22;67971;51.046;3.732;2023-04-15T00:18:33;13.80;99.90
23073;DHT22;67971;51.046;3.732;2023-04-15T00:20:59;13.80;99.90
23073;DHT22;67971;51.046;3.732;2023-04-15T00:23:24;13.80;99.90
23073;DHT22;67971;51.046;3.732;2023-04-15T00:25:51;13.80;99.90
23073;DHT22;67971;51.046;3.732;2023-04-15T00:28:17;13.90;99.90
23073;DHT22;67971;51.046;3.732;2023-04-15T00:30:43;13.90;99.90
23073;DHT22;67971;51.046;3.732;2023-04-15T00:33:09;14.00;99.90
23073;DHT22;67971;51.046;3.732;2023-04-15T00:35:35;13.90;99.90
23073;DHT22;67971;51.046;3.732;2023-04-15T00:38:02;13.90;99.90
23073;DHT22;67971;51.046;3.732;2023-04-15T00:40:29;13.90;99.90
23073;DHT22;67971;51.046;3.732;2023-04-15T00:42:55;13.80;99.90
23073;DHT22;67971;51.046;3.732;2023-04-15T00:45:21;13.70;99.90
23073;DHT22;67971;51.046;3.732;2023-04-15T00:47:46;13.70;99.90
23073;DHT22;67971;51.046;3.732;2023-04-15T00:50:12;13.80;99.90
23073;DHT22;67971;51.046;3.732;2023-04-15T00:52:38;13.80;99.90
23073;DHT22;67971;51.046;3.732;2023-04-15T00:55:05;13.70;99.90
23073;DHT22;67971;51.046;3.732;2023-04-15T00:57:31;13.60;99.90
23073;DHT22;67971;51.046;3.732;2023-04-15T00:59:57;13.60;99.90
23073;DHT22;67971;51.046;3.732;2023-04-15T01:02:23;13.50;99.90
23073;DHT22;67971;51.046;3.732;2023-04-15T01:04:49;13.50;99.90
23073;DHT22;67971;51.046;3.732;2023-04-15T01:07:15;13.50;99.90
23073;DHT22;67971;51.046;3.732;2023-04-15T01:09:41;13.50;99.90
23073;DHT22;67971;51.046;3.732;2023-04-15T01:12:09;13.50;99.90
23073;DHT22;67971;51.046;3.732;2023-04-15T01:14:36;13.50;99.90
23073;DHT22;67971;51.046;3.732;2023-04-15T01:17:02;13.40;99.90
23073;DHT22;67971;51.046;3.732;2023-04-15T01:19:28;13.30;99.90
23073;DHT22;67971;51.046;3.732;2023-04-15T01:21:53;13.30;99.90
23073;DHT22;67971;51.046;3.732;2023-04-15T01:24:19;13.20;99.90
23073;DHT22;67971;51.046;3.732;2023-04-15T01:26:45;13.10;99.90
23073;DHT22;67971;51.046;3.732;2023-04-15T01:29:11;13.00;99.90
23073;DHT22;67971;51.046;3.732;2023-04-15T01:31:37;12.90;99.90
23073;DHT22;67971;51.046;3.732;2023-04-15T01:34:03;13.00;99.90
23073;DHT22;67971;51.046;3.732;2023-04-15T01:36:29;13.10;99.90
23073;DHT22;67971;51.046;3.732;2023-04-15T01:38:55;13.10;99.90
23073;DHT22;67971;51.046;3.732;2023-04-15T01:41:26;13.10;99.90
23073;DHT22;67971;51.046;3.732;2023-04-15T01:43:52;13.10;99.90
23073;DHT22;67971;51.046;3.732;2023-04-15T01:46:18;13.20;99.90
23073;DHT22;67971;51.046;3.732;2023-04-15T01:48:43;13.20;99.90
23073;DHT22;67971;51.046;3.732;2023-04-15T01:51:09;13.20;99.90
23073;DHT22;67971;51.046;3.732;2023-04-15T01:53:35;13.30;99.90
23073;DHT22;67971;51.046;3.732;2023-04-15T01:56:01;13.10;99.90
23073;DHT22;67971;51.046;3.732;2023-04-15T01:58:27;13.00;99.90
23073;DHT22;67971;51.046;3.732;2023-04-15T02:00:53;13.10;99.90
23073;DHT22;67971;51.046;3.732;2023-04-15T02:03:19;13.10;99.90
23073;DHT22;67971;51.046;3.732;2023-04-15T02:05:44;13.00;99.90
23073;DHT22;67971;51.046;3.732;2023-04-15T02:08:10;12.80;99.90
23073;DHT22;67971;51.046;3.732;2023-04-15T02:10:36;12.70;99.90
23073;DHT22;67971;51.046;3.732;2023-04-15T02:13:03;12.70;99.90
23073;DHT22;67971;51.046;3.732;2023-04-15T02:15:29;12.70;99.90
23073;DHT22;67971;51.046;3.732;2023-04-15T02:17:55;12.60;99.90
23073;DHT22;67971;51.046;3.732;2023-04-15T02:20:22;12.60;99.90
23073;DHT22;67971;51.046;3.732;2023-04-15T02:22:48;12.50;99.90
23073;DHT22;67971;51.046;3.732;2023-04-15T02:25:14;12.60;99.90
23073;DHT22;67971;51.046;3.732;2023-04-15T02:27:41;12.50;99.90
23073;DHT22;67971;51.046;3.732;2023-04-15T02:30:09;12.50;99.90
23073;DHT22;67971;51.046;3.732;2023-04-15T02:32:34;12.50;99.90
23073;DHT22;67971;51.046;3.732;2023-04-15T02:35:06;12.50;99.90
23073;DHT22;67971;51.046;3.732;2023-04-15T02:37:32;12.50;99.90
23073;DHT22;67971;51.046;3.732;2023-04-15T02:40:01;12.40;99.90
23073;DHT22;67971;51.046;3.732;2023-04-15T02:42:27;12.40;99.90
23073;DHT22;67971;51.046;3.732;2023-04-15T02:44:55;12.40;99.90
23073;DHT22;67971;51.046;3.732;2023-04-15T02:47:20;12.40;99.90
23073;DHT22;67971;51.046;3.732;2023-04-15T02:49:46;12.50;99.90
23073;DHT22;67971;51.046;3.732;2023-04-15T02:52:12;12.50;99.90
23073;DHT22;67971;51.046;3.732;2023-04-15T02:54:38;12.50;99.90
23073;DHT22;67971;51.046;3.732;2023-04-15T02:57:04;12.50;99.90
23073;DHT22;67971;51.046;3.732;2023-04-15T02:59:31;12.50;99.90
23073;DHT22;67971;51.046;3.732;2023-04-15T03:01:57;12.50;99.90
23073;DHT22;67971;51.046;3.732;2023-04-15T03:04:25;12.60;99.90
23073;DHT22;67971;51.046;3.732;2023-04-15T03:06:51;12.60;99.90
23073;DHT22;67971;51.046;3.732;2023-04-15T03:09:17;12.70;99.90
23073;DHT22;67971;51.046;3.732;2023-04-15T03:11:43;12.60;99.90
23073;DHT22;67971;51.046;3.732;2023-04-15T03:14:09;12.60;99.90
23073;DHT22;67971;51.046;3.732;2023-04-15T03:16:34;12.50;99.90
23073;DHT22;67971;51.046;3.732;2023-04-15T03:19:00;12.50;99.90
23073;DHT22;67971;51.046;3.732;2023-04-15T03:21:26;12.30;99.90
23073;DHT22;67971;51.046;3.732;2023-04-15T03:23:52;12.30;99.90
23073;DHT22;67971;51.046;3.732;2023-04-15T03:26:30;12.10;99.90
23073;DHT22;67971;51.046;3.732;2023-04-15T03:28:56;12.10;99.90
23073;DHT22;67971;51.046;3.732;2023-04-15T03:31:22;12.10;99.90
23073;DHT22;67971;51.046;3.732;2023-04-15T03:33:48;12.20;99.90
23073;DHT22;67971;51.046;3.732;2023-04-15T03:36:14;12.20;99.90
23073;DHT22;67971;51.046;3.732;2023-04-15T03:38:40;12.30;99.90
23073;DHT22;67971;51.046;3.732;2023-04-15T03:41:06;12.20;99.90
23073;DHT22;67971;51.046;3.732;2023-04-15T03:43:32;12.20;99.90
23073;DHT22;67971;51.046;3.732;2023-04-15T03:45:57;12.30;99.90
23073;DHT22;67971;51.046;3.732;2023-04-15T03:48:23;12.20;99.90
23073;DHT22;67971;51.046;3.732;2023-04-15T03:50:49;12.30;99.90
23073;DHT22;67971;51.046;3.732;2023-04-15T03:53:15;12.30;99.90
23073;DHT22;67971;51.046;3.732;2023-04-15T03:55:40;12.50;99.90
23073;DHT22;67971;51.046;3.732;2023-04-15T03:58:06;12.50;99.90
23073;DHT22;67971;51.046;3.732;2023-04-15T04:00:32;12.60;99.90
23073;DHT22;67971;51.046;3.732;2023-04-15T04:02:57;12.70;99.90
23073;DHT22;67971;51.046;3.732;2023-04-15T04:05:23;12.70;99.90
23073;DHT22;67971;51.046;3.732;2023-04-15T04:07:49;12.70;99.90
23073;DHT22;67971;51.046;3.732;2023-04-15T04:10:15;12.50;99.90
23073;DHT22;67971;51.046;3.732;2023-04-15T04:12:40;12.50;99.90
23073;DHT22;67971;51.046;3.732;2023-04-15T04:15:07;12.40;99.90
23073;DHT22;67971;51.046;3.732;2023-04-15T04:17:33;12.30;99.90
23073;DHT22;67971;51.046;3.732;2023-04-15T04:19:58;12.30;99.90
23073;DHT22;67971;51.046;3.732;2023-04-15T04:22:24;12.20;99.90
23073;DHT22;67971;51.046;3.732;2023-04-15T04:24:50;12.20;99.90
23073;DHT22;67971;51.046;3.732;2023-04-15T04:27:15;12.00;99.90
23073;DHT22;67971;51.046;3.732;2023-04-15T04:29:41;11.80;99.90
23073;DHT22;67971;51.046;3.732;2023-04-15T04:32:07;11.80;99.90
23073;DHT22;67971;51.046;3.732;2023-04-15T04:34:33;11.80;99.90
23073;DHT22;67971;51.046;3.732;2023-04-15T04:36:58;11.80;99.90
23073;DHT22;67971;51.046;3.732;2023-04-15T04:39:24;12.00;99.90
23073;DHT22;67971;51.046;3.732;2023-04-15T04:41:50;12.10;99.90
23073;DHT22;67971;51.046;3.732;2023-04-15T04:44:17;12.20;99.90
23073;DHT22;67971;51.046;3.732;2023-04-15T04:46:42;12.20;99.90
23073;DHT22;67971;51.046;3.732;2023-04-15T04:49:08;12.20;99.90
23073;DHT22;67971;51.046;3.732;2023-04-15T04:51:34;12.20;99.90
23073;DHT22;67971;51.046;3.732;2023-04-15T04:54:00;12.30;99.90
23073;DHT22;67971;51.046;3.732;2023-04-15T04:56:26;12.40;99.90
23073;DHT22;67971;51.046;3.732;2023-04-15T04:58:52;12.40;99.90
23073;DHT22;67971;51.046;3.732;2023-04-15T05:01:17;12.50;99.90
23073;DHT22;67971;51.046;3.732;2023-04-15T05:03:43;12.60;99.90
23073;DHT22;67971;51.046;3.732;2023-04-15T05:06:09;12.60;99.90
23073;DHT22;67971;51.046;3.732;2023-04-15T05:08:35;12.60;99.90
23073;DHT22;67971;51.046;3.732;2023-04-15T05:11:01;12.70;99.90
23073;DHT22;67971;51.046;3.732;2023-04-15T05:13:27;12.70;99.90
23073;DHT22;67971;51.046;3.732;2023-04-15T05:15:54;12.70;99.90
23073;DHT22;67971;51.046;3.732;2023-04-15T05:18:20;12.70;99.90
23073;DHT22;67971;51.046;3.732;2023-04-15T05:20:46;12.70;99.90
23073;DHT22;67971;51.046;3.732;2023-04-15T05:23:12;12.70;99.90
23073;DHT22;67971;51.046;3.732;2023-04-15T05:25:37;12.70;99.90
23073;DHT22;67971;51.046;3.732;2023-04-15T05:28:03;12.60;99.90
23073;DHT22;67971;51.046;3.732;2023-04-15T05:30:29;12.60;99.90
23073;DHT22;67971;51.046;3.732;2023-04-15T05:32:55;12.60;99.90
23073;DHT22;67971;51.046;3.732;2023-04-15T05:35:20;12.50;99.90
23073;DHT22;67971;51.046;3.732;2023-04-15T05:37:46;12.60;99.90
23073;DHT22;67971;51.046;3.732;2023-04-15T05:40:12;12.60;99.90
23073;DHT22;67971;51.046;3.732;2023-04-15T05:42:38;12.60;99.90
23073;DHT22;67971;51.046;3.732;2023-04-15T05:45:04;12.60;99.90
23073;DHT22;67971;51.046;3.732;2023-04-15T05:47:34;12.70;99.90
23073;DHT22;67971;51.046;3.732;2023-04-15T05:50:00;12.60;99.90
23073;DHT22;67971;51.046;3.732;2023-04-15T05:52:25;12.60;99.90
23073;DHT22;67971;51.046;3.732;2023-04-15T05:54:51;12.60;99.90
23073;DHT22;67971;51.046;3.732;2023-04-15T05:57:17;12.60;99.90
23073;DHT22;67971;51.046;3.732;2023-04-15T05:59:43;12.60;99.90
23073;DHT22;67971;51.046;3.732;2023-04-15T06:02:09;12.60;99.90
23073;DHT22;67971;51.046;3.732;2023-04-15T06:04:35;12.60;99.90
23073;DHT22;67971;51.046;3.732;2023-04-15T06:07:01;12.60;99.90
23073;DHT22;67971;51.046;3.732;2023-04-15T06:09:27;12.70;99.90
23073;DHT22;67971;51.046;3.732;2023-04-15T06:11:54;12.80;99.90
23073;DHT22;67971;51.046;3.732;2023-04-15T06:14:21;12.90;99.90
23073;DHT22;67971;51.046;3.732;2023-04-15T06:16:47;12.80;99.90
23073;DHT22;67971;51.046;3.732;2023-04-15T06:19:12;13.00;99.90
23073;DHT22;67971;51.046;3.732;2023-04-15T06:21:38;13.10;99.90
23073;DHT22;67971;51.046;3.732;2023-04-15T06:24:05;13.10;99.90
23073;DHT22;67971;51.046;3.732;2023-04-15T06:26:30;13.40;99.90
23073;DHT22;67971;51.046;3.732;2023-04-15T06:28:56;13.60;99.90
23073;DHT22;67971;51.046;3.732;2023-04-15T06:31:22;13.80;99.90
23073;DHT22;67971;51.046;3.732;2023-04-15T06:33:48;14.10;99.90
23073;DHT22;67971;51.046;3.732;2023-04-15T06:36:13;14.30;99.90
23073;DHT22;67971;51.046;3.732;2023-04-15T06:38:39;14.50;99.90
23073;DHT22;67971;51.046;3.732;2023-04-15T06:41:06;14.50;99.90
23073;DHT22;67971;51.046;3.732;2023-04-15T06:43:32;14.50;99.90
23073;DHT22;67971;51.046;3.732;2023-04-15T06:45:57;14.60;99.90
23073;DHT22;67971;51.046;3.732;2023-04-15T06:48:23;14.40;99.90
23073;DHT22;67971;51.046;3.732;2023-04-15T06:50:49;14.30;99.90
23073;DHT22;67971;51.046;3.732;2023-04-15T06:53:15;14.40;99.90
23073;DHT22;67971;51.046;3.732;2023-04-15T06:55:40;14.50;99.90
23073;DHT22;67971;51.046;3.732;2023-04-15T06:58:06;14.80;99.90
23073;DHT22;67971;51.046;3.732;2023-04-15T07:00:32;14.80;99.90
23073;DHT22;67971;51.046;3.732;2023-04-15T07:02:59;14.80;99.90
23073;DHT22;67971;51.046;3.732;2023-04-15T07:05:28;15.10;99.90
23073;DHT22;67971;51.046;3.732;2023-04-15T07:07:55;15.50;99.90
23073;DHT22;67971;51.046;3.732;2023-04-15T07:10:21;15.80;99.90
23073;DHT22;67971;51.046;3.732;2023-04-15T07:12:47;15.90;99.90
23073;DHT22;67971;51.046;3.732;2023-04-15T07:15:13;16.10;99.90
23073;DHT22;67971;51.046;3.732;2023-04-15T07:17:40;16.10;99.90
23073;DHT22;67971;51.046;3.732;2023-04-15T07:20:08;16.10;99.90
23073;DHT22;67971;51.046;3.732;2023-04-15T07:22:34;16.20;99.90
23073;DHT22;67971;51.046;3.732;2023-04-15T07:25:00;16.30;99.90
23073;DHT22;67971;51.046;3.732;2023-04-15T07:27:25;16.30;99.90
23073;DHT22;67971;51.046;3.732;2023-04-15T07:29:52;16.40;99.90
23073;DHT22;67971;51.046;3.732;2023-04-15T07:32:18;16.20;99.90
23073;DHT22;67971;51.046;3.732;2023-04-15T07:34:44;16.00;99.90
23073;DHT22;67971;51.046;3.732;2023-04-15T07:37:10;15.80;99.90
23073;DHT22;67971;51.046;3.732;2023-04-15T07:39:36;15.50;99.90
23073;DHT22;67971;51.046;3.732;2023-04-15T07:42:02;15.20;99.90
23073;DHT22;67971;51.046;3.732;2023-04-15T07:44:28;14.90;99.90
23073;DHT22;67971;51.046;3.732;2023-04-15T07:46:55;14.80;99.90
23073;DHT22;67971;51.046;3.732;2023-04-15T07:49:21;14.90;99.90
23073;DHT22;67971;51.046;3.732;2023-04-15T07:51:47;15.10;99.90
23073;DHT22;67971;51.046;3.732;2023-04-15T07:54:14;15.20;99.90
23073;DHT22;67971;51.046;3.732;2023-04-15T07:56:40;15.40;99.90
23073;DHT22;67971;51.046;3.732;2023-04-15T07:59:06;15.70;99.90
23073;DHT22;67971;51.046;3.732;2023-04-15T08:01:33;16.20;99.90
23073;DHT22;67971;51.046;3.732;2023-04-15T08:03:59;16.60;99.90
23073;DHT22;67971;51.046;3.732;2023-04-15T08:06:25;17.20;99.90
23073;DHT22;67971;51.046;3.732;2023-04-15T08:08:52;17.20;99.90
23073;DHT22;67971;51.046;3.732;2023-04-15T08:11:19;17.70;99.90
23073;DHT22;67971;51.046;3.732;2023-04-15T08:13:46;18.40;99.90
23073;DHT22;67971;51.046;3.732;2023-04-15T08:16:25;19.00;99.90
23073;DHT22;67971;51.046;3.732;2023-04-15T08:18:55;19.70;99.90
23073;DHT22;67971;51.046;3.732;2023-04-15T08:21:21;20.10;99.90
23073;DHT22;67971;51.046;3.732;2023-04-15T08:23:48;21.30;99.90
23073;DHT22;67971;51.046;3.732;2023-04-15T08:26:18;23.60;99.90
23073;DHT22;67971;51.046;3.732;2023-04-15T08:28:45;24.20;99.90
23073;DHT22;67971;51.046;3.732;2023-04-15T08:31:15;25.00;99.90
23073;DHT22;67971;51.046;3.732;2023-04-15T08:33:42;24.30;99.90
23073;DHT22;67971;51.046;3.732;2023-04-15T08:36:07;23.60;99.90
23073;DHT22;67971;51.046;3.732;2023-04-15T08:38:34;22.90;99.90
23073;DHT22;67971;51.046;3.732;2023-04-15T08:41:06;22.50;99.90
23073;DHT22;67971;51.046;3.732;2023-04-15T08:43:46;22.10;99.90
23073;DHT22;67971;51.046;3.732;2023-04-15T08:46:13;21.90;99.90
23073;DHT22;67971;51.046;3.732;2023-04-15T08:48:40;21.60;99.90
23073;DHT22;67971;51.046;3.732;2023-04-15T08:51:07;21.50;99.90
23073;DHT22;67971;51.046;3.732;2023-04-15T08:53:33;21.50;99.90
23073;DHT22;67971;51.046;3.732;2023-04-15T08:56:04;21.40;99.90
23073;DHT22;67971;51.046;3.732;2023-04-15T08:58:32;21.30;99.90
23073;DHT22;67971;51.046;3.732;2023-04-15T09:00:58;21.20;99.90
23073;DHT22;67971;51.046;3.732;2023-04-15T09:03:24;21.10;99.90
23073;DHT22;67971;51.046;3.732;2023-04-15T09:05:51;20.80;99.90
23073;DHT22;67971;51.046;3.732;2023-04-15T09:08:17;20.80;99.90
23073;DHT22;67971;51.046;3.732;2023-04-15T09:10:42;20.60;99.90
23073;DHT22;67971;51.046;3.732;2023-04-15T09:13:08;20.80;99.90
23073;DHT22;67971;51.046;3.732;2023-04-15T09:15:37;20.80;99.90
23073;DHT22;67971;51.046;3.732;2023-04-15T09:18:03;21.00;99.90
23073;DHT22;67971;51.046;3.732;2023-04-15T09:20:29;20.90;99.90
23073;DHT22;67971;51.046;3.732;2023-04-15T09:22:54;20.60;99.90
23073;DHT22;67971;51.046;3.732;2023-04-15T09:27:48;20.40;99.90
23073;DHT22;67971;51.046;3.732;2023-04-15T09:30:14;20.40;99.90
23073;DHT22;67971;51.046;3.732;2023-04-15T09:32:50;20.40;99.90
23073;DHT22;67971;51.046;3.732;2023-04-15T09:35:17;20.50;99.90
23073;DHT22;67971;51.046;3.732;2023-04-15T09:37:43;20.40;99.90
23073;DHT22;67971;51.046;3.732;2023-04-15T09:40:09;20.40;99.90
23073;DHT22;67971;51.046;3.732;2023-04-15T09:42:35;20.70;99.90
23073;DHT22;67971;51.046;3.732;2023-04-15T09:45:11;21.00;99.90
23073;DHT22;67971;51.046;3.732;2023-04-15T09:47:37;21.40;99.90
23073;DHT22;67971;51.046;3.732;2023-04-15T09:50:03;21.60;99.90
23073;DHT22;67971;51.046;3.732;2023-04-15T09:52:29;21.90;99.90
23073;DHT22;67971;51.046;3.732;2023-04-15T09:54:58;22.60;99.90
23073;DHT22;67971;51.046;3.732;2023-04-15T09:57:24;22.90;99.90
23073;DHT22;67971;51.046;3.732;2023-04-15T09:59:57;23.60;99.90
23073;DHT22;67971;51.046;3.732;2023-04-15T10:02:24;24.70;99.90
23073;DHT22;67971;51.046;3.732;2023-04-15T10:04:51;26.30;99.90
23073;DHT22;67971;51.046;3.732;2023-04-15T10:07:19;27.20;99.90
23073;DHT22;67971;51.046;3.732;2023-04-15T10:09:47;28.60;99.90
23073;DHT22;67971;51.046;3.732;2023-04-15T10:12:18;30.20;99.90
23073;DHT22;67971;51.046;3.732;2023-04-15T10:14:49;30.40;99.40
23073;DHT22;67971;51.046;3.732;2023-04-15T10:17:17;31.10;98.80
23073;DHT22;67971;51.046;3.732;2023-04-15T10:19:47;31.70;97.40
23073;DHT22;67971;51.046;3.732;2023-04-15T10:22:14;32.90;95.90
23073;DHT22;67971;51.046;3.732;2023-04-15T10:24:40;33.50;93.80
23073;DHT22;67971;51.046;3.732;2023-04-15T10:27:07;32.70;90.60
23073;DHT22;67971;51.046;3.732;2023-04-15T10:29:33;31.10;91.60
23073;DHT22;67971;51.046;3.732;2023-04-15T10:32:00;31.40;90.60
23073;DHT22;67971;51.046;3.732;2023-04-15T10:34:27;31.10;89.00
23073;DHT22;67971;51.046;3.732;2023-04-15T10:37:03;31.10;90.00
23073;DHT22;67971;51.046;3.732;2023-04-15T10:42:32;31.60;88.00
23073;DHT22;67971;51.046;3.732;2023-04-15T10:44:59;32.60;87.10
23073;DHT22;67971;51.046;3.732;2023-04-15T10:47:25;32.20;82.60
23073;DHT22;67971;51.046;3.732;2023-04-15T10:49:51;32.40;81.60
23073;DHT22;67971;51.046;3.732;2023-04-15T10:52:22;33.00;79.60
23073;DHT22;67971;51.046;3.732;2023-04-15T10:54:48;34.20;78.60
23073;DHT22;67971;51.046;3.732;2023-04-15T10:57:37;34.60;77.00
23073;DHT22;67971;51.046;3.732;2023-04-15T11:02:45;35.70;75.60
23073;DHT22;67971;51.046;3.732;2023-04-15T11:05:15;35.80;71.40
23073;DHT22;67971;51.046;3.732;2023-04-15T11:13:25;35.20;67.30
23073;DHT22;67971;51.046;3.732;2023-04-15T11:15:55;35.30;66.90
23073;DHT22;67971;51.046;3.732;2023-04-15T11:18:25;34.70;68.10
23073;DHT22;67971;51.046;3.732;2023-04-15T11:21:00;34.90;64.40
23073;DHT22;67971;51.046;3.732;2023-04-15T11:23:41;34.80;66.30
23073;DHT22;67971;51.046;3.732;2023-04-15T11:26:13;34.50;64.30
23073;DHT22;67971;51.046;3.732;2023-04-15T11:28:43;34.20;65.10
23073;DHT22;67971;51.046;3.732;2023-04-15T11:31:13;34.70;65.00
23073;DHT22;67971;51.046;3.732;2023-04-15T11:33:52;34.90;61.40
23073;DHT22;67971;51.046;3.732;2023-04-15T11:36:18;35.00;60.90
23073;DHT22;67971;51.046;3.732;2023-04-15T11:38:46;34.30;61.60
23073;DHT22;67971;51.046;3.732;2023-04-15T11:41:12;34.60;62.30
23073;DHT22;67971;51.046;3.732;2023-04-15T11:43:38;33.90;61.30
23073;DHT22;67971;51.046;3.732;2023-04-15T11:46:03;33.90;58.00
23073;DHT22;67971;51.046;3.732;2023-04-15T11:48:32;34.40;62.70
23073;DHT22;67971;51.046;3.732;2023-04-15T11:51:03;35.30;61.10
23073;DHT22;67971;51.046;3.732;2023-04-15T11:56:06;36.30;59.40
23073;DHT22;67971;51.046;3.732;2023-04-15T11:58:34;36.70;59.60
23073;DHT22;67971;51.046;3.732;2023-04-15T12:01:04;36.20;57.30
23073;DHT22;67971;51.046;3.732;2023-04-15T12:09:08;35.30;57.80
23073;DHT22;67971;51.046;3.732;2023-04-15T12:11:37;35.10;57.90
23073;DHT22;67971;51.046;3.732;2023-04-15T12:16:46;34.40;59.80
23073;DHT22;67971;51.046;3.732;2023-04-15T12:19:22;35.70;58.30
23073;DHT22;67971;51.046;3.732;2023-04-15T12:21:49;36.10;59.30
23073;DHT22;67971;51.046;3.732;2023-04-15T12:24:15;35.90;56.40
23073;DHT22;67971;51.046;3.732;2023-04-15T12:26:46;35.70;56.40
23073;DHT22;67971;51.046;3.732;2023-04-15T12:29:14;35.20;57.60
23073;DHT22;67971;51.046;3.732;2023-04-15T12:34:34;35.80;57.20
23073;DHT22;67971;51.046;3.732;2023-04-15T12:37:02;36.10;56.20
23073;DHT22;67971;51.046;3.732;2023-04-15T12:39:30;35.20;56.00
23073;DHT22;67971;51.046;3.732;2023-04-15T12:41:57;35.60;56.50
23073;DHT22;67971;51.046;3.732;2023-04-15T12:44:24;35.10;57.80
23073;DHT22;67971;51.046;3.732;2023-04-15T12:46:51;35.20;58.20
23073;DHT22;67971;51.046;3.732;2023-04-15T12:49:21;35.10;57.30
23073;DHT22;67971;51.046;3.732;2023-04-15T12:51:52;35.00;56.60
23073;DHT22;67971;51.046;3.732;2023-04-15T12:54:18;35.20;57.50
23073;DHT22;67971;51.046;3.732;2023-04-15T12:56:45;35.80;56.70
23073;DHT22;67971;51.046;3.732;2023-04-15T12:59:11;35.40;55.40
23073;DHT22;67971;51.046;3.732;2023-04-15T13:01:37;36.00;57.20
23073;DHT22;67971;51.046;3.732;2023-04-15T13:04:04;34.70;56.20
23073;DHT22;67971;51.046;3.732;2023-04-15T13:06:29;34.10;57.20
23073;DHT22;67971;51.046;3.732;2023-04-15T13:08:58;34.00;57.50
23073;DHT22;67971;51.046;3.732;2023-04-15T13:11:24;34.70;57.00
23073;DHT22;67971;51.046;3.732;2023-04-15T13:13:50;34.90;56.80
23073;DHT22;67971;51.046;3.732;2023-04-15T13:16:19;34.70;54.20
23073;DHT22;67971;51.046;3.732;2023-04-15T13:18:45;34.80;55.00
23073;DHT22;67971;51.046;3.732;2023-04-15T13:21:11;34.80;55.20
23073;DHT22;67971;51.046;3.732;2023-04-15T13:23:37;34.50;56.60
23073;DHT22;67971;51.046;3.732;2023-04-15T13:26:03;34.20;55.90
23073;DHT22;67971;51.046;3.732;2023-04-15T13:28:29;34.40;55.40
23073;DHT22;67971;51.046;3.732;2023-04-15T13:30:54;33.50;55.20
23073;DHT22;67971;51.046;3.732;2023-04-15T13:33:20;33.30;56.70
23073;DHT22;67971;51.046;3.732;2023-04-15T13:35:46;33.80;57.00
23073;DHT22;67971;51.046;3.732;2023-04-15T13:38:11;34.10;55.50
23073;DHT22;67971;51.046;3.732;2023-04-15T13:40:37;34.20;57.50
23073;DHT22;67971;51.046;3.732;2023-04-15T13:43:03;34.60;57.10
23073;DHT22;67971;51.046;3.732;2023-04-15T13:45:29;33.80;58.80
23073;DHT22;67971;51.046;3.732;2023-04-15T13:47:55;31.50;61.90
23073;DHT22;67971;51.046;3.732;2023-04-15T13:50:23;29.80;66.60
23073;DHT22;67971;51.046;3.732;2023-04-15T13:52:49;31.20;66.80
23073;DHT22;67971;51.046;3.732;2023-04-15T13:55:15;32.10;64.60
23073;DHT22;67971;51.046;3.732;2023-04-15T13:57:40;32.40;64.20
23073;DHT22;67971;51.046;3.732;2023-04-15T14:00:07;32.90;64.10
23073;DHT22;67971;51.046;3.732;2023-04-15T14:02:33;33.50;64.50
23073;DHT22;67971;51.046;3.732;2023-04-15T14:04:58;34.10;62.10
23073;DHT22;67971;51.046;3.732;2023-04-15T14:07:24;33.90;61.70
23073;DHT22;67971;51.046;3.732;2023-04-15T14:09:50;34.20;63.90
23073;DHT22;67971;51.046;3.732;2023-04-15T14:12:16;33.80;61.70
23073;DHT22;67971;51.046;3.732;2023-04-15T14:14:41;33.20;62.80
23073;DHT22;67971;51.046;3.732;2023-04-15T14:17:07;32.40;64.70
23073;DHT22;67971;51.046;3.732;2023-04-15T14:19:34;32.50;64.30
23073;DHT22;67971;51.046;3.732;2023-04-15T14:22:00;32.60;63.70
23073;DHT22;67971;51.046;3.732;2023-04-15T14:24:26;32.80;64.70
23073;DHT22;67971;51.046;3.732;2023-04-15T14:26:52;33.90;63.80
23073;DHT22;67971;51.046;3.732;2023-04-15T14:29:17;33.90;61.20
23073;DHT22;67971;51.046;3.732;2023-04-15T14:31:43;33.60;62.50
23073;DHT22;67971;51.046;3.732;2023-04-15T14:34:10;34.30;62.00
23073;DHT22;67971;51.046;3.732;2023-04-15T14:36:36;34.40;60.60
23073;DHT22;67971;51.046;3.732;2023-04-15T14:39:02;33.90;59.70
23073;DHT22;67971;51.046;3.732;2023-04-15T14:41:28;34.10;59.70
23073;DHT22;67971;51.046;3.732;2023-04-15T14:43:54;33.70;61.50
23073;DHT22;67971;51.046;3.732;2023-04-15T14:46:21;32.70;62.30
23073;DHT22;67971;51.046;3.732;2023-04-15T14:48:47;32.90;61.20
23073;DHT22;67971;51.046;3.732;2023-04-15T14:51:13;33.30;60.10
23073;DHT22;67971;51.046;3.732;2023-04-15T14:53:39;33.70;60.00
23073;DHT22;67971;51.046;3.732;2023-04-15T14:56:05;33.00;60.00
23073;DHT22;67971;51.046;3.732;2023-04-15T14:58:31;32.80;60.00
23073;DHT22;67971;51.046;3.732;2023-04-15T15:00:57;32.50;60.90
23073;DHT22;67971;51.046;3.732;2023-04-15T15:03:23;32.60;61.30
23073;DHT22;67971;51.046;3.732;2023-04-15T15:05:49;32.70;61.00
23073;DHT22;67971;51.046;3.732;2023-04-15T15:08:15;33.00;58.70
23073;DHT22;67971;51.046;3.732;2023-04-15T15:10:41;31.90;58.00
23073;DHT22;67971;51.046;3.732;2023-04-15T15:13:08;31.40;58.70
23073;DHT22;67971;51.046;3.732;2023-04-15T15:15:35;31.70;59.90
23073;DHT22;67971;51.046;3.732;2023-04-15T15:18:01;31.80;58.80
23073;DHT22;67971;51.046;3.732;2023-04-15T15:20:27;31.50;58.20
23073;DHT22;67971;51.046;3.732;2023-04-15T15:22:53;31.20;60.10
23073;DHT22;67971;51.046;3.732;2023-04-15T15:25:19;31.30;59.80
23073;DHT22;67971;51.046;3.732;2023-04-15T15:27:45;31.40;61.80
23073;DHT22;67971;51.046;3.732;2023-04-15T15:30:11;31.30;61.00
23073;DHT22;67971;51.046;3.732;2023-04-15T15:32:39;31.40;62.20
23073;DHT22;67971;51.046;3.732;2023-04-15T15:35:05;30.30;62.20
23073;DHT22;67971;51.046;3.732;2023-04-15T15:37:31;29.70;63.30
23073;DHT22;67971;51.046;3.732;2023-04-15T15:39:57;29.80;63.50
23073;DHT22;67971;51.046;3.732;2023-04-15T15:42:24;29.80;64.70
23073;DHT22;67971;51.046;3.732;2023-04-15T15:44:50;29.60;64.50
23073;DHT22;67971;51.046;3.732;2023-04-15T15:47:18;28.70;65.40
23073;DHT22;67971;51.046;3.732;2023-04-15T15:49:44;28.80;65.30
23073;DHT22;67971;51.046;3.732;2023-04-15T15:52:11;28.40;65.20
23073;DHT22;67971;51.046;3.732;2023-04-15T15:54:39;28.10;66.00